Time;durP1;ratioP1;P1;durP2;ratioP2;P2;SDS_P1;SDS_P2;PMS_P1;PMS_P2;Temp;Humidity;BMP_temperature;BMP_pressure;BME280_temperature;BME280_humidity;BME280_pressure;Samples;Min_cycle;Max_cycle;Signal;HPM_P1;HPM_P2
2022/04/18 00:00:28;;;;;;;9.48;8.45;;;;;;;;;;5043244;28;20495;-84
2022/04/18 00:02:54;;;;;;;10.02;9.00;;;;;;;;;;5047373;28;20040;-85
2022/04/18 00:05:20;;;;;;;10.18;9.18;;;;;;;;;;5057776;28;20414;-84
2022/04/18 00:07:46;;;;;;;9.80;8.77;;;;;;;;;;5042617;28;20051;-84
2022/04/18 00:10:12;;;;;;;10.25;9.20;;;;;;;;;;5042792;28;20459;-84
2022/04/18 00:12:38;;;;;;;10.15;9.15;;;;;;;;;;5062109;28;20052;-85
2022/04/18 00:15:04;;;;;;;10.50;9.52;;;;;;;;;;5037165;28;20041;-85
2022/04/18 00:17:30;;;;;;;11.35;10.05;;;;;;;;;;5059191;28;20189;-83
2022/04/18 00:19:56;;;;;;;10.10;9.00;;;;;;;;;;5060469;28;20139;-85
2022/04/18 00:22:23;;;;;;;10.38;9.25;;;;;;;;;;5049478;28;20518;-84
2022/04/18 00:24:49;;;;;;;11.15;10.05;;;;;;;;;;5060380;28;20055;-85
2022/04/18 00:27:15;;;;;;;10.30;9.30;;;;;;;;;;5059414;28;20141;-85
2022/04/18 00:29:42;;;;;;;10.63;9.63;;;;;;;;;;5046186;28;20128;-85
2022/04/18 00:32:08;;;;;;;10.45;9.45;;;;;;;;;;5063265;28;20049;-84
2022/04/18 00:34:34;;;;;;;11.45;10.25;;;;;;;;;;5056219;28;20037;-85
2022/04/18 00:37:00;;;;;;;11.80;10.18;;;;;;;;;;5040047;28;20068;-84
2022/04/18 00:39:26;;;;;;;11.25;10.05;;;;;;;;;;5037822;28;20048;-84
2022/04/18 00:41:52;;;;;;;10.65;9.32;;;;;;;;;;5045753;28;20045;-84
2022/04/18 00:44:18;;;;;;;11.25;10.15;;;;;;;;;;5056699;28;20048;-85
2022/04/18 00:46:44;;;;;;;11.32;10.23;;;;;;;;;;5059965;28;20384;-85
2022/04/18 00:49:10;;;;;;;11.48;10.27;;;;;;;;;;5034881;28;20404;-84
2022/04/18 00:51:36;;;;;;;12.50;10.80;;;;;;;;;;5053990;28;20039;-85
2022/04/18 00:54:02;;;;;;;12.05;10.38;;;;;;;;;;5067845;28;20061;-85
2022/04/18 00:56:28;;;;;;;11.63;10.52;;;;;;;;;;5057328;28;20052;-85
2022/04/18 00:58:56;;;;;;;12.02;10.73;;;;;;;;;;5061936;28;20080;-84
2022/04/18 01:01:23;;;;;;;12.38;11.18;;;;;;;;;;5061693;28;20075;-85
2022/04/18 01:03:49;;;;;;;11.40;10.30;;;;;;;;;;5062803;28;20111;-85
2022/04/18 01:06:15;;;;;;;11.55;10.38;;;;;;;;;;5043055;28;20045;-85
2022/04/18 01:08:43;;;;;;;11.75;10.50;;;;;;;;;;5071633;28;20056;-84
2022/04/18 01:11:09;;;;;;;12.98;10.40;;;;;;;;;;5042515;28;20132;-84
2022/04/18 01:13:47;;;;;;;12.38;11.07;;;;;;;;;;5050803;28;20438;-85
2022/04/18 01:16:13;;;;;;;11.70;10.40;;;;;;;;;;5059435;28;20120;-85
2022/04/18 01:18:40;;;;;;;11.65;10.45;;;;;;;;;;5066092;28;20128;-84
2022/04/18 01:21:07;;;;;;;11.65;10.45;;;;;;;;;;5052513;28;20102;-85
2022/04/18 01:23:33;;;;;;;13.90;10.63;;;;;;;;;;5044050;28;20069;-84
2022/04/18 01:28:59;;;;;;;12.10;10.90;;;;;;;;;;5048920;28;20082;-84
2022/04/18 01:31:26;;;;;;;14.57;10.57;;;;;;;;;;5040851;28;20064;-84
2022/04/18 01:33:52;;;;;;;12.80;11.30;;;;;;;;;;5039200;28;20033;-84
2022/04/18 01:36:18;;;;;;;12.02;10.82;;;;;;;;;;5048706;28;20562;-84
2022/04/18 01:38:44;;;;;;;12.88;10.93;;;;;;;;;;5044808;28;20045;-84
2022/04/18 01:41:10;;;;;;;12.80;11.50;;;;;;;;;;5062982;28;20041;-85
2022/04/18 01:43:36;;;;;;;12.90;10.63;;;;;;;;;;5038363;28;20072;-84
2022/04/18 01:46:02;;;;;;;12.55;11.27;;;;;;;;;;5039381;28;20128;-84
2022/04/18 01:48:28;;;;;;;12.75;11.48;;;;;;;;;;5066925;28;20076;-84
2022/04/18 01:50:54;;;;;;;13.25;11.90;;;;;;;;;;5067311;28;20455;-84
2022/04/18 01:53:20;;;;;;;12.02;10.77;;;;;;;;;;5052732;28;20052;-85
2022/04/18 01:55:46;;;;;;;12.38;11.18;;;;;;;;;;5064376;28;20084;-85
2022/04/18 01:58:12;;;;;;;12.90;11.60;;;;;;;;;;5046569;28;20118;-85
2022/04/18 02:00:38;;;;;;;13.52;11.65;;;;;;;;;;5048734;28;20048;-85
2022/04/18 02:03:04;;;;;;;13.52;12.13;;;;;;;;;;5045451;28;20052;-85
2022/04/18 02:05:30;;;;;;;12.52;11.32;;;;;;;;;;5043072;28;20054;-84
2022/04/18 02:07:59;;;;;;;12.52;11.30;;;;;;;;;;5058489;28;20051;-84
2022/04/18 02:10:25;;;;;;;13.10;11.70;;;;;;;;;;5050240;28;20138;-84
2022/04/18 02:12:51;;;;;;;12.55;11.35;;;;;;;;;;5067476;28;20044;-84
2022/04/18 02:15:19;;;;;;;13.02;11.73;;;;;;;;;;5055959;28;20060;-84
2022/04/18 02:17:45;;;;;;;12.85;11.43;;;;;;;;;;5061509;28;20044;-84
2022/04/18 02:20:11;;;;;;;12.90;11.52;;;;;;;;;;5061441;28;20033;-83
2022/04/18 02:22:37;;;;;;;12.80;11.30;;;;;;;;;;5064460;28;20052;-84
2022/04/18 02:25:03;;;;;;;13.40;12.00;;;;;;;;;;5040424;28;20476;-83
2022/04/18 02:27:29;;;;;;;13.75;12.35;;;;;;;;;;5047202;28;20059;-83
2022/04/18 02:29:55;;;;;;;13.70;12.25;;;;;;;;;;5062687;28;20131;-84
2022/04/18 02:35:06;;;;;;;13.02;11.73;;;;;;;;;;5066201;28;20044;-84
2022/04/18 02:37:32;;;;;;;12.18;10.95;;;;;;;;;;5039659;28;20044;-83
2022/04/18 02:39:59;;;;;;;12.98;11.68;;;;;;;;;;5038708;28;20037;-84
2022/04/18 02:42:26;;;;;;;13.52;12.02;;;;;;;;;;5058038;28;20056;-84
2022/04/18 02:44:52;;;;;;;13.38;12.07;;;;;;;;;;5061600;28;20041;-84
2022/04/18 02:47:18;;;;;;;13.75;12.32;;;;;;;;;;5062468;28;20091;-83
2022/04/18 02:49:44;;;;;;;14.77;13.00;;;;;;;;;;5071585;28;20369;-84
2022/04/18 02:52:10;;;;;;;15.30;12.60;;;;;;;;;;5039720;28;20083;-84
2022/04/18 02:54:36;;;;;;;12.90;11.60;;;;;;;;;;5055937;28;20052;-84
2022/04/18 02:57:02;;;;;;;12.95;11.70;;;;;;;;;;5059907;28;20368;-84
2022/04/18 02:59:28;;;;;;;13.27;11.95;;;;;;;;;;5064895;28;20049;-83
2022/04/18 03:01:54;;;;;;;13.40;12.00;;;;;;;;;;5039425;28;20047;-84
2022/04/18 03:04:20;;;;;;;13.35;12.05;;;;;;;;;;5065754;28;20120;-84
2022/04/18 03:06:46;;;;;;;13.68;11.95;;;;;;;;;;5043577;28;20049;-83
2022/04/18 03:09:12;;;;;;;14.50;13.02;;;;;;;;;;5048155;28;20404;-83
2022/04/18 03:11:38;;;;;;;14.35;12.85;;;;;;;;;;5044502;28;20055;-84
2022/04/18 03:14:04;;;;;;;15.20;13.55;;;;;;;;;;5043828;28;20044;-83
2022/04/18 03:16:30;;;;;;;14.63;13.13;;;;;;;;;;5064571;28;20047;-83
2022/04/18 03:18:56;;;;;;;14.57;13.13;;;;;;;;;;5055457;28;20048;-83
2022/04/18 03:21:22;;;;;;;13.93;12.52;;;;;;;;;;5065579;28;20033;-83
2022/04/18 03:23:48;;;;;;;14.88;13.32;;;;;;;;;;5056408;28;20584;-83
2022/04/18 03:26:14;;;;;;;15.13;13.52;;;;;;;;;;5057534;28;20075;-84
2022/04/18 03:28:40;;;;;;;16.00;14.30;;;;;;;;;;5061878;28;20464;-84
2022/04/18 03:31:06;;;;;;;16.05;13.57;;;;;;;;;;5043524;28;20045;-83
2022/04/18 03:33:32;;;;;;;16.63;14.18;;;;;;;;;;5045789;28;20052;-83
2022/04/18 03:41:28;;;;;;;15.98;14.30;;;;;;;;;;5061199;28;20049;-83
2022/04/18 03:43:54;;;;;;;15.07;13.52;;;;;;;;;;5057188;28;20087;-84
2022/04/18 03:46:20;;;;;;;16.73;14.93;;;;;;;;;;5059860;28;20067;-83
2022/04/18 03:48:46;;;;;;;16.30;14.70;;;;;;;;;;5061165;28;20063;-83
2022/04/18 03:51:12;;;;;;;16.60;14.90;;;;;;;;;;5057768;28;20488;-83
2022/04/18 03:53:38;;;;;;;15.23;13.73;;;;;;;;;;5052889;28;20180;-84
2022/04/18 03:56:04;;;;;;;15.93;14.23;;;;;;;;;;5056277;28;20102;-84
2022/04/18 03:58:33;;;;;;;15.73;14.13;;;;;;;;;;5065030;28;20437;-83
2022/04/18 04:00:59;;;;;;;16.73;14.93;;;;;;;;;;5035446;28;20041;-84
2022/04/18 04:03:26;;;;;;;16.80;15.00;;;;;;;;;;5056226;28;21119;-83
2022/04/18 04:05:56;;;;;;;16.23;14.50;;;;;;;;;;5055994;28;20044;-84
2022/04/18 04:08:24;;;;;;;15.85;14.25;;;;;;;;;;5041898;28;20049;-82
2022/04/18 04:10:51;;;;;;;17.48;14.60;;;;;;;;;;5045271;28;20124;-83
2022/04/18 04:13:17;;;;;;;16.75;14.80;;;;;;;;;;5063821;28;20043;-84
2022/04/18 04:15:44;;;;;;;16.73;15.07;;;;;;;;;;5052175;28;20524;-84
2022/04/18 04:18:10;;;;;;;17.40;15.60;;;;;;;;;;5045541;28;20040;-83
2022/04/18 04:20:36;;;;;;;17.50;15.10;;;;;;;;;;5044799;28;20049;-83
2022/04/18 04:23:02;;;;;;;16.70;15.00;;;;;;;;;;5061286;28;20047;-83
2022/04/18 04:25:28;;;;;;;15.93;14.27;;;;;;;;;;5059397;28;20051;-83
2022/04/18 04:27:54;;;;;;;17.02;15.23;;;;;;;;;;5057719;28;20447;-83
2022/04/18 04:30:20;;;;;;;16.45;14.75;;;;;;;;;;5055120;28;20040;-82
2022/04/18 04:32:46;;;;;;;17.33;15.52;;;;;;;;;;5041794;28;20409;-83
2022/04/18 04:35:12;;;;;;;17.58;15.20;;;;;;;;;;5065614;28;20140;-83
2022/04/18 04:37:38;;;;;;;17.67;15.98;;;;;;;;;;5046142;28;20095;-83
2022/04/18 04:40:04;;;;;;;17.10;15.30;;;;;;;;;;5065088;28;20123;-83
2022/04/18 04:42:30;;;;;;;17.33;15.52;;;;;;;;;;5062312;28;20086;-83
2022/04/18 04:44:57;;;;;;;17.63;15.85;;;;;;;;;;5053051;28;20037;-84
2022/04/18 04:47:23;;;;;;;17.98;15.65;;;;;;;;;;5060424;28;20048;-83
2022/04/18 04:49:49;;;;;;;17.98;16.00;;;;;;;;;;5067099;28;20395;-84
2022/04/18 04:52:15;;;;;;;18.55;16.20;;;;;;;;;;5047440;28;20044;-84
2022/04/18 04:54:41;;;;;;;19.77;17.23;;;;;;;;;;5061006;28;20091;-83
2022/04/18 04:57:07;;;;;;;17.10;15.30;;;;;;;;;;5066312;28;20085;-82
2022/04/18 04:59:33;;;;;;;17.30;15.27;;;;;;;;;;5069573;28;20507;-83
2022/04/18 05:01:59;;;;;;;18.63;16.65;;;;;;;;;;5053041;28;20376;-83
2022/04/18 05:04:27;;;;;;;18.88;16.70;;;;;;;;;;5068274;28;20084;-82
2022/04/18 05:06:53;;;;;;;18.70;16.80;;;;;;;;;;5046223;28;20080;-82
2022/04/18 05:09:19;;;;;;;18.17;16.38;;;;;;;;;;5064313;28;20147;-82
2022/04/18 05:11:46;;;;;;;18.90;16.83;;;;;;;;;;5047722;28;20041;-82
2022/04/18 05:14:13;;;;;;;18.38;16.42;;;;;;;;;;5041533;28;20057;-82
2022/04/18 05:16:39;;;;;;;17.73;15.82;;;;;;;;;;5059711;28;20132;-83
2022/04/18 05:19:06;;;;;;;17.80;15.73;;;;;;;;;;5057245;28;20048;-83
2022/04/18 05:21:32;;;;;;;18.55;16.65;;;;;;;;;;5063143;28;20109;-82
2022/04/18 05:23:58;;;;;;;19.17;17.20;;;;;;;;;;5044222;28;20045;-82
2022/04/18 05:26:24;;;;;;;19.45;17.35;;;;;;;;;;5044483;28;20449;-82
2022/04/18 05:28:50;;;;;;;18.55;16.60;;;;;;;;;;5066542;28;20044;-82
2022/04/18 05:31:19;;;;;;;18.85;16.85;;;;;;;;;;5060905;28;20157;-82
2022/04/18 05:33:45;;;;;;;19.55;17.45;;;;;;;;;;5044143;28;20048;-83
2022/04/18 05:36:11;;;;;;;19.27;17.27;;;;;;;;;;5067369;28;20086;-82
2022/04/18 05:38:37;;;;;;;20.50;18.30;;;;;;;;;;5063473;28;20115;-82
2022/04/18 05:41:03;;;;;;;19.55;17.48;;;;;;;;;;5062725;28;20056;-82
2022/04/18 05:43:29;;;;;;;18.83;16.88;;;;;;;;;;5069157;28;20048;-83
2022/04/18 05:45:55;;;;;;;19.60;17.50;;;;;;;;;;5043345;28;20129;-83
2022/04/18 05:48:21;;;;;;;19.63;17.73;;;;;;;;;;5044506;28;20067;-82
2022/04/18 05:50:47;;;;;;;20.98;18.20;;;;;;;;;;5051820;28;20051;-83
2022/04/18 05:53:14;;;;;;;18.98;17.05;;;;;;;;;;5047524;28;20060;-83
2022/04/18 05:55:40;;;;;;;20.23;18.23;;;;;;;;;;5041683;28;20404;-83
2022/04/18 05:58:06;;;;;;;20.15;18.05;;;;;;;;;;5067044;28;20111;-83
2022/04/18 06:00:34;;;;;;;19.23;17.20;;;;;;;;;;5066471;28;20045;-83
2022/04/18 06:03:00;;;;;;;22.17;18.13;;;;;;;;;;5049635;28;20055;-83
2022/04/18 06:05:26;;;;;;;20.05;17.80;;;;;;;;;;5049502;28;20067;-83
2022/04/18 06:07:52;;;;;;;20.20;17.92;;;;;;;;;;5063741;28;20120;-83
2022/04/18 06:10:18;;;;;;;21.05;18.15;;;;;;;;;;5050807;28;20397;-83
2022/04/18 06:12:44;;;;;;;19.35;17.27;;;;;;;;;;5057323;28;20078;-83
2022/04/18 06:15:10;;;;;;;19.73;17.25;;;;;;;;;;5054870;28;20501;-83
2022/04/18 06:17:36;;;;;;;19.67;17.60;;;;;;;;;;5042255;28;20048;-83
2022/04/18 06:20:03;;;;;;;20.30;17.63;;;;;;;;;;5066322;28;20183;-83
2022/04/18 06:22:29;;;;;;;19.42;17.42;;;;;;;;;;5065967;28;20514;-83
2022/04/18 06:24:55;;;;;;;20.20;17.58;;;;;;;;;;5043783;28;20150;-83
2022/04/18 06:27:21;;;;;;;18.60;16.65;;;;;;;;;;5067460;28;20056;-83
2022/04/18 06:29:47;;;;;;;19.38;17.35;;;;;;;;;;5057799;28;20063;-84
2022/04/18 06:32:14;;;;;;;19.08;17.08;;;;;;;;;;5045877;28;20479;-83
2022/04/18 06:34:40;;;;;;;18.52;16.55;;;;;;;;;;5048417;28;20052;-83
2022/04/18 06:37:06;;;;;;;18.50;16.60;;;;;;;;;;5049101;28;20545;-83
2022/04/18 06:39:32;;;;;;;17.88;16.05;;;;;;;;;;5068278;28;20119;-84
2022/04/18 06:41:58;;;;;;;19.98;16.77;;;;;;;;;;5044880;28;20041;-83
2022/04/18 06:44:24;;;;;;;19.13;17.17;;;;;;;;;;5046331;28;20045;-83
2022/04/18 06:46:50;;;;;;;18.85;16.85;;;;;;;;;;5061540;28;20471;-83
2022/04/18 06:49:16;;;;;;;18.75;16.88;;;;;;;;;;5047740;28;20408;-83
2022/04/18 06:51:42;;;;;;;18.15;16.35;;;;;;;;;;5066494;28;20094;-83
2022/04/18 06:54:08;;;;;;;18.17;15.52;;;;;;;;;;5060030;28;20061;-83
2022/04/18 06:59:19;;;;;;;17.58;15.77;;;;;;;;;;5049655;28;20511;-82
2022/04/18 07:01:46;;;;;;;17.02;14.80;;;;;;;;;;5063278;28;20046;-83
2022/04/18 07:04:13;;;;;;;16.90;14.90;;;;;;;;;;5066070;28;20423;-83
2022/04/18 07:06:40;;;;;;;16.60;15.00;;;;;;;;;;5043558;28;20507;-83
2022/04/18 07:09:06;;;;;;;17.20;15.30;;;;;;;;;;5069169;28;20052;-83
2022/04/18 07:11:32;;;;;;;17.98;16.00;;;;;;;;;;5060813;28;20068;-84
2022/04/18 07:13:58;;;;;;;17.75;15.65;;;;;;;;;;5043949;28;20099;-83
2022/04/18 07:16:24;;;;;;;17.27;14.93;;;;;;;;;;5046221;28;20480;-83
2022/04/18 07:18:50;;;;;;;16.92;15.23;;;;;;;;;;5062935;28;20087;-84
2022/04/18 07:21:16;;;;;;;17.25;14.60;;;;;;;;;;5064636;28;20072;-83
2022/04/18 07:23:42;;;;;;;16.25;14.57;;;;;;;;;;5064433;28;20052;-83
2022/04/18 07:26:08;;;;;;;15.52;13.93;;;;;;;;;;5063186;28;20048;-83
2022/04/18 07:28:38;;;;;;;15.85;14.20;;;;;;;;;;5052011;28;20115;-83
2022/04/18 07:31:05;;;;;;;15.73;13.18;;;;;;;;;;5063468;28;20400;-83
2022/04/18 07:33:31;;;;;;;15.40;13.80;;;;;;;;;;5047275;28;20036;-83
2022/04/18 07:35:57;;;;;;;15.88;13.98;;;;;;;;;;5063727;28;20506;-84
2022/04/18 07:41:08;;;;;;;16.42;13.63;;;;;;;;;;5066544;28;20048;-85
2022/04/18 07:43:34;;;;;;;15.85;14.18;;;;;;;;;;5060806;28;20036;-84
2022/04/18 07:46:01;;;;;;;15.80;13.95;;;;;;;;;;5037497;28;20459;-83
2022/04/18 07:48:27;;;;;;;15.75;14.15;;;;;;;;;;5048072;28;20048;-83
2022/04/18 07:53:38;;;;;;;14.82;13.32;;;;;;;;;;5047053;28;20053;-86
2022/04/18 07:56:04;;;;;;;15.25;13.57;;;;;;;;;;5047373;28;20123;-82
2022/04/18 07:58:30;;;;;;;15.90;14.18;;;;;;;;;;5047113;28;20037;-84
2022/04/18 08:00:56;;;;;;;14.98;13.38;;;;;;;;;;5045025;28;20051;-85
2022/04/18 08:03:22;;;;;;;14.43;12.88;;;;;;;;;;5046716;28;20041;-83
2022/04/18 08:05:48;;;;;;;13.48;12.07;;;;;;;;;;5038270;28;20500;-83
2022/04/18 08:08:14;;;;;;;14.90;13.40;;;;;;;;;;5048986;28;20072;-83
2022/04/18 08:10:40;;;;;;;13.82;12.23;;;;;;;;;;5056812;28;20045;-83
2022/04/18 08:13:06;;;;;;;13.60;12.20;;;;;;;;;;5044732;28;20049;-83
2022/04/18 08:15:33;;;;;;;13.73;12.27;;;;;;;;;;5054212;28;20045;-83
2022/04/18 08:17:59;;;;;;;14.55;13.05;;;;;;;;;;5054795;28;20064;-83
2022/04/18 08:20:25;;;;;;;14.32;12.82;;;;;;;;;;5051932;28;20056;-82
2022/04/18 08:22:51;;;;;;;14.05;12.55;;;;;;;;;;5053778;28;20040;-84
2022/04/18 08:25:18;;;;;;;16.35;11.93;;;;;;;;;;5043076;28;20488;-83
2022/04/18 08:27:44;;;;;;;14.43;12.85;;;;;;;;;;5046629;28;20041;-83
2022/04/18 08:30:10;;;;;;;13.95;12.45;;;;;;;;;;5048093;28;20041;-82
2022/04/18 08:32:40;;;;;;;12.32;11.02;;;;;;;;;;5046820;28;20074;-82
2022/04/18 08:35:06;;;;;;;12.77;11.48;;;;;;;;;;5044346;28;20044;-82
2022/04/18 08:37:34;;;;;;;12.18;10.85;;;;;;;;;;5050959;28;20202;-82
2022/04/18 08:40:00;;;;;;;12.07;10.75;;;;;;;;;;5051675;28;20116;-83
2022/04/18 08:42:29;;;;;;;11.50;10.40;;;;;;;;;;5047215;28;20053;-83
2022/04/18 08:44:55;;;;;;;11.48;10.30;;;;;;;;;;5045832;28;20162;-83
2022/04/18 08:52:51;;;;;;;12.20;10.90;;;;;;;;;;5046509;28;20080;-83
2022/04/18 08:55:17;;;;;;;12.55;10.55;;;;;;;;;;5049415;28;20080;-82
2022/04/18 08:57:43;;;;;;;11.02;9.60;;;;;;;;;;5051256;28;20056;-81
2022/04/18 09:00:10;;;;;;;10.70;8.23;;;;;;;;;;5045068;28;21515;-81
2022/04/18 09:02:36;;;;;;;8.05;7.00;;;;;;;;;;5043963;28;20059;-82
2022/04/18 09:05:03;;;;;;;12.25;8.98;;;;;;;;;;5032585;28;20080;-82
2022/04/18 09:07:29;;;;;;;11.82;9.02;;;;;;;;;;5050922;28;20045;-81
2022/04/18 09:09:58;;;;;;;9.95;8.38;;;;;;;;;;5055400;28;20040;-82
2022/04/18 09:12:27;;;;;;;9.23;8.25;;;;;;;;;;5041380;28;20041;-82
2022/04/18 09:14:53;;;;;;;9.68;8.25;;;;;;;;;;5046561;28;20048;-82
2022/04/18 09:17:32;;;;;;;10.45;8.15;;;;;;;;;;5048419;28;20048;-81
2022/04/18 09:20:11;;;;;;;9.02;8.13;;;;;;;;;;5050954;28;20124;-81
2022/04/18 09:22:44;;;;;;;9.70;7.80;;;;;;;;;;5050377;28;20087;-82
2022/04/18 09:25:17;;;;;;;7.85;7.05;;;;;;;;;;5040463;28;20124;-82
2022/04/18 09:27:49;;;;;;;7.75;6.88;;;;;;;;;;5046631;28;20037;-82
2022/04/18 09:30:17;;;;;;;7.70;6.70;;;;;;;;;;5047331;28;20036;-81
2022/04/18 09:32:54;;;;;;;8.25;6.75;;;;;;;;;;5048268;28;20053;-82
2022/04/18 09:35:23;;;;;;;7.72;7.00;;;;;;;;;;5046500;28;20032;-82
2022/04/18 09:37:51;;;;;;;8.77;7.63;;;;;;;;;;5051304;28;20128;-81
2022/04/18 09:40:22;;;;;;;8.32;7.53;;;;;;;;;;5049657;28;20411;-81
2022/04/18 09:42:51;;;;;;;9.75;7.80;;;;;;;;;;5044188;28;20489;-83
2022/04/18 09:45:18;;;;;;;7.82;7.03;;;;;;;;;;5044239;28;20095;-82
2022/04/18 09:47:44;;;;;;;7.90;7.10;;;;;;;;;;5047035;28;20123;-83
2022/04/18 09:53:04;;;;;;;7.75;7.05;;;;;;;;;;5044920;28;20049;-83
2022/04/18 09:55:30;;;;;;;7.68;6.93;;;;;;;;;;5045723;28;20045;-83
2022/04/18 09:58:01;;;;;;;9.63;8.63;;;;;;;;;;5046119;28;20053;-83
2022/04/18 10:00:27;;;;;;;9.80;8.80;;;;;;;;;;5040598;28;20045;-79
2022/04/18 10:02:54;;;;;;;8.82;7.93;;;;;;;;;;5045906;28;20076;-83
2022/04/18 10:05:20;;;;;;;8.05;7.25;;;;;;;;;;5044585;28;20044;-83
2022/04/18 10:07:48;;;;;;;7.50;6.80;;;;;;;;;;5049703;28;20048;-83
2022/04/18 10:10:14;;;;;;;6.55;5.47;;;;;;;;;;5050435;28;20052;-83
2022/04/18 10:12:40;;;;;;;5.07;4.57;;;;;;;;;;5046658;28;20222;-83
2022/04/18 10:15:09;;;;;;;5.38;4.57;;;;;;;;;;5048509;28;20080;-83
2022/04/18 10:17:38;;;;;;;5.00;4.50;;;;;;;;;;5050092;28;20071;-83
2022/04/18 10:20:04;;;;;;;5.63;4.35;;;;;;;;;;5049299;28;20048;-84
2022/04/18 10:22:36;;;;;;;5.65;4.90;;;;;;;;;;5044183;28;20051;-83
2022/04/18 10:25:14;;;;;;;5.05;4.63;;;;;;;;;;5046431;28;20476;-80
2022/04/18 10:27:53;;;;;;;5.50;5.00;;;;;;;;;;5044042;28;20060;-82
2022/04/18 10:30:19;;;;;;;4.97;4.57;;;;;;;;;;5042831;28;20049;-82
2022/04/18 10:32:46;;;;;;;5.93;4.82;;;;;;;;;;5049181;28;20041;-82
2022/04/18 10:35:13;;;;;;;4.90;4.40;;;;;;;;;;5047267;28;20095;-82
2022/04/18 10:37:42;;;;;;;4.80;4.40;;;;;;;;;;5046712;28;20056;-82
2022/04/18 10:40:08;;;;;;;4.53;4.13;;;;;;;;;;5047177;28;20041;-82
2022/04/18 10:42:35;;;;;;;4.80;4.40;;;;;;;;;;5041403;28;20045;-82
2022/04/18 10:45:07;;;;;;;5.03;4.45;;;;;;;;;;5043514;28;20073;-83
2022/04/18 10:47:52;;;;;;;4.90;4.40;;;;;;;;;;5047935;28;20454;-82
2022/04/18 10:50:18;;;;;;;5.13;4.55;;;;;;;;;;5047500;28;20053;-82
2022/04/18 10:53:03;;;;;;;4.50;4.10;;;;;;;;;;5047776;28;20053;-82
2022/04/18 10:55:29;;;;;;;4.75;4.03;;;;;;;;;;5043657;28;20099;-80
2022/04/18 10:58:12;;;;;;;5.03;4.15;;;;;;;;;;5048492;28;20503;-81
2022/04/18 11:00:58;;;;;;;4.40;4.00;;;;;;;;;;5038815;28;20526;-82
2022/04/18 11:03:36;;;;;;;4.30;3.90;;;;;;;;;;5036950;28;20167;-82
2022/04/18 11:06:37;;;;;;;4.25;3.83;;;;;;;;;;5043158;28;20455;-82
2022/04/18 11:09:03;;;;;;;4.30;3.90;;;;;;;;;;5044878;28;20047;-81
2022/04/18 11:11:42;;;;;;;4.13;3.72;;;;;;;;;;5044962;28;20052;-81
2022/04/18 11:14:25;;;;;;;4.93;3.95;;;;;;;;;;5042629;28;20047;-82
2022/04/18 11:16:53;;;;;;;5.18;4.53;;;;;;;;;;5041516;28;20052;-81
2022/04/18 11:19:20;;;;;;;4.95;4.30;;;;;;;;;;5046678;28;20040;-82
2022/04/18 11:21:59;;;;;;;4.40;4.00;;;;;;;;;;5040440;28;20044;-80
2022/04/18 11:24:58;;;;;;;5.55;4.32;;;;;;;;;;5041759;28;20393;-82
2022/04/18 11:27:26;;;;;;;4.60;4.20;;;;;;;;;;5047712;28;20049;-82
2022/04/18 11:29:55;;;;;;;4.53;4.07;;;;;;;;;;5044729;28;20045;-82
2022/04/18 11:32:23;;;;;;;4.50;4.10;;;;;;;;;;5042596;28;20429;-82
2022/04/18 11:34:50;;;;;;;4.60;4.10;;;;;;;;;;5043811;28;20041;-82
2022/04/18 11:37:24;;;;;;;4.68;4.28;;;;;;;;;;5053030;28;20055;-82
2022/04/18 11:39:54;;;;;;;4.10;3.70;;;;;;;;;;5046417;28;20036;-80
2022/04/18 11:42:21;;;;;;;4.05;3.75;;;;;;;;;;5041881;28;20077;-82
2022/04/18 11:44:48;;;;;;;5.13;4.63;;;;;;;;;;5041550;28;20057;-82
2022/04/18 11:47:15;;;;;;;4.55;4.05;;;;;;;;;;5042747;28;20041;-83
2022/04/18 11:49:44;;;;;;;4.60;4.20;;;;;;;;;;5045230;28;20552;-82
2022/04/18 11:52:18;;;;;;;4.57;4.18;;;;;;;;;;5041945;28;20090;-83
2022/04/18 11:54:57;;;;;;;4.68;4.20;;;;;;;;;;5047806;28;20045;-83
2022/04/18 11:57:23;;;;;;;4.85;4.35;;;;;;;;;;5062098;28;20041;-83
2022/04/18 11:59:49;;;;;;;4.78;4.38;;;;;;;;;;5049163;28;20052;-82
2022/04/18 12:07:49;;;;;;;5.63;4.50;;;;;;;;;;5047538;28;20430;-82
2022/04/18 12:10:29;;;;;;;4.55;4.15;;;;;;;;;;5047246;28;20053;-82
2022/04/18 12:12:56;;;;;;;5.22;4.40;;;;;;;;;;5044913;28;20037;-83
2022/04/18 12:15:26;;;;;;;4.43;4.03;;;;;;;;;;5046365;28;20041;-82
2022/04/18 12:17:53;;;;;;;4.65;4.22;;;;;;;;;;5043428;28;20048;-83
2022/04/18 12:20:22;;;;;;;4.82;4.43;;;;;;;;;;5047174;28;20551;-82
2022/04/18 12:22:58;;;;;;;4.82;4.32;;;;;;;;;;5046983;28;20523;-82
2022/04/18 12:25:25;;;;;;;4.82;4.40;;;;;;;;;;5043424;28;20139;-82
2022/04/18 12:27:51;;;;;;;5.07;4.50;;;;;;;;;;5048602;28;20033;-82
2022/04/18 12:30:17;;;;;;;4.10;3.80;;;;;;;;;;5046617;28;20045;-83
2022/04/18 12:32:47;;;;;;;4.88;4.22;;;;;;;;;;5047262;28;20049;-82
2022/04/18 12:35:13;;;;;;;5.00;4.60;;;;;;;;;;5043484;28;20373;-83
2022/04/18 12:37:47;;;;;;;5.47;4.22;;;;;;;;;;5046986;28;20041;-83
2022/04/18 12:40:14;;;;;;;4.78;4.13;;;;;;;;;;5045317;28;20047;-82
2022/04/18 12:42:40;;;;;;;5.45;4.30;;;;;;;;;;5046547;28;20056;-82
2022/04/18 12:45:06;;;;;;;4.57;4.15;;;;;;;;;;5046316;28;20156;-83
2022/04/18 12:47:32;;;;;;;4.38;3.97;;;;;;;;;;5046200;28;20044;-83
2022/04/18 12:50:06;;;;;;;8.35;7.30;;;;;;;;;;5041096;28;20491;-83
2022/04/18 12:52:32;;;;;;;4.60;4.20;;;;;;;;;;5048118;28;20044;-83
2022/04/18 12:55:07;;;;;;;4.90;4.50;;;;;;;;;;5041701;28;20060;-82
2022/04/18 12:57:33;;;;;;;4.50;4.20;;;;;;;;;;5044033;28;20171;-82
2022/04/18 13:00:14;;;;;;;4.43;4.03;;;;;;;;;;5050607;28;20083;-82
2022/04/18 13:02:41;;;;;;;4.50;4.10;;;;;;;;;;5049601;28;20057;-82
2022/04/18 13:05:07;;;;;;;4.50;4.00;;;;;;;;;;5043967;28;20040;-83
2022/04/18 13:07:40;;;;;;;5.07;4.32;;;;;;;;;;5050724;28;20044;-82
2022/04/18 13:10:07;;;;;;;4.45;4.05;;;;;;;;;;5051211;28;20563;-82
2022/04/18 13:12:33;;;;;;;4.30;3.90;;;;;;;;;;5051644;28;20166;-82
2022/04/18 13:15:05;;;;;;;5.10;4.20;;;;;;;;;;5051106;28;20131;-83
2022/04/18 13:17:33;;;;;;;5.85;4.57;;;;;;;;;;5049956;28;20033;-82
2022/04/18 13:20:00;;;;;;;5.45;4.95;;;;;;;;;;5051514;28;20048;-82
2022/04/18 13:22:26;;;;;;;4.03;3.72;;;;;;;;;;5049547;28;20048;-82
2022/04/18 13:24:53;;;;;;;4.38;3.97;;;;;;;;;;5038552;28;20054;-82
2022/04/18 13:27:23;;;;;;;4.07;3.60;;;;;;;;;;5047852;28;20048;-82
2022/04/18 13:29:49;;;;;;;3.90;3.50;;;;;;;;;;5051276;28;20045;-81
2022/04/18 13:32:15;;;;;;;4.78;3.50;;;;;;;;;;5048705;28;20045;-81
2022/04/18 13:34:41;;;;;;;4.35;3.38;;;;;;;;;;5049785;28;20093;-82
2022/04/18 13:37:11;;;;;;;3.30;3.05;;;;;;;;;;5048011;28;20045;-82
2022/04/18 13:39:37;;;;;;;3.28;2.97;;;;;;;;;;5049250;28;20528;-83
2022/04/18 13:42:03;;;;;;;3.20;3.00;;;;;;;;;;5048865;28;20051;-82
2022/04/18 13:44:30;;;;;;;3.20;3.00;;;;;;;;;;5047881;28;20049;-82
2022/04/18 13:46:57;;;;;;;3.42;2.72;;;;;;;;;;5049260;28;20055;-82
2022/04/18 13:49:23;;;;;;;3.28;2.60;;;;;;;;;;5050612;28;20051;-82
2022/04/18 13:51:49;;;;;;;3.05;2.75;;;;;;;;;;5048728;28;20079;-82
2022/04/18 13:54:15;;;;;;;3.22;2.90;;;;;;;;;;5048235;28;20080;-82
2022/04/18 13:56:41;;;;;;;2.47;2.28;;;;;;;;;;5049428;28;20072;-81
2022/04/18 13:59:07;;;;;;;3.58;2.40;;;;;;;;;;5049474;28;20080;-82
2022/04/18 14:01:33;;;;;;;2.50;2.30;;;;;;;;;;5049230;28;20072;-82
2022/04/18 14:03:59;;;;;;;3.13;2.40;;;;;;;;;;5046601;28;20040;-82
2022/04/18 14:06:27;;;;;;;2.50;2.30;;;;;;;;;;5042888;28;20057;-81
2022/04/18 14:08:53;;;;;;;2.35;2.10;;;;;;;;;;5048859;28;20049;-82
2022/04/18 14:11:19;;;;;;;2.30;2.10;;;;;;;;;;5047672;28;20044;-81
2022/04/18 14:13:45;;;;;;;2.33;1.80;;;;;;;;;;5047720;28;20056;-82
2022/04/18 14:21:41;;;;;;;2.75;2.25;;;;;;;;;;5048316;28;20495;-82
2022/04/18 14:24:07;;;;;;;1.90;1.80;;;;;;;;;;5048088;28;20526;-82
2022/04/18 14:26:36;;;;;;;3.15;1.70;;;;;;;;;;5045110;28;20041;-82
2022/04/18 14:29:03;;;;;;;1.45;1.40;;;;;;;;;;5049661;28;20041;-82
2022/04/18 14:31:32;;;;;;;2.10;1.45;;;;;;;;;;5048401;28;20102;-81
2022/04/18 14:33:58;;;;;;;1.70;1.60;;;;;;;;;;5042195;28;20044;-82
2022/04/18 14:36:24;;;;;;;1.70;1.60;;;;;;;;;;5045321;28;20044;-83
2022/04/18 14:38:50;;;;;;;3.40;1.88;;;;;;;;;;5050020;28;20045;-83
2022/04/18 14:41:17;;;;;;;1.92;1.83;;;;;;;;;;5048971;28;20036;-83
2022/04/18 14:43:43;;;;;;;2.00;1.90;;;;;;;;;;5043303;28;20055;-83
2022/04/18 14:46:09;;;;;;;3.13;1.90;;;;;;;;;;5049102;28;20047;-84
2022/04/18 14:48:35;;;;;;;1.80;1.70;;;;;;;;;;5046847;28;20129;-84
2022/04/18 14:51:01;;;;;;;1.90;1.80;;;;;;;;;;5049364;28;20124;-83
2022/04/18 14:53:26;;;;;;;2.83;1.92;;;;;;;;;;5047387;28;20412;-83
2022/04/18 14:55:55;;;;;;;2.05;1.95;;;;;;;;;;5049034;28;20482;-83
2022/04/18 14:58:21;;;;;;;2.30;2.10;;;;;;;;;;5047357;28;20128;-83
2022/04/18 15:00:47;;;;;;;1.65;1.55;;;;;;;;;;5041737;28;20460;-84
2022/04/18 15:03:16;;;;;;;2.22;1.80;;;;;;;;;;5046986;28;20073;-84
2022/04/18 15:05:42;;;;;;;4.40;1.92;;;;;;;;;;5045391;28;20056;-83
2022/04/18 15:08:08;;;;;;;2.80;2.05;;;;;;;;;;5049953;28;20045;-83